createdAt,value
2023-02-08T00:00:00.512Z,11.0
2023-02-08T00:05:00.483Z,9.6
2023-02-08T00:10:00.512Z,9.1
2023-02-08T00:15:00.497Z,9.8
2023-02-08T00:20:00.516Z,9.7
2023-02-08T00:25:00.496Z,9.9
2023-02-08T00:30:00.442Z,9.0
2023-02-08T00:35:00.495Z,10.1
2023-02-08T00:40:00.471Z,9.0
2023-02-08T00:45:00.499Z,9.2
2023-02-08T00:50:00.471Z,10.5
2023-02-08T00:55:00.474Z,9.3
2023-02-08T01:00:00.440Z,8.8
2023-02-08T01:05:00.466Z,9.7
2023-02-08T01:10:00.453Z,9.6
2023-02-08T01:15:00.487Z,8.7
2023-02-08T01:20:00.521Z,9.0
2023-02-08T01:25:00.477Z,9.8
2023-02-08T01:30:00.468Z,10.2
2023-02-08T01:35:00.486Z,9.7
2023-02-08T01:40:00.471Z,8.8
2023-02-08T01:45:00.465Z,8.7
2023-02-08T01:50:00.450Z,11.5
2023-02-08T01:55:00.489Z,11.3
2023-02-08T02:00:00.460Z,12.1
2023-02-08T02:05:00.468Z,11.6
2023-02-08T02:10:00.484Z,11.5
2023-02-08T02:15:00.480Z,10.3
2023-02-08T02:20:00.478Z,10.2
2023-02-08T02:25:00.467Z,10.4
2023-02-08T02:30:00.484Z,11.4
2023-02-08T02:35:00.472Z,11.7
2023-02-08T02:40:00.477Z,10.8
2023-02-08T02:45:00.512Z,12.3
2023-02-08T02:50:00.466Z,10.5
2023-02-08T02:55:00.473Z,11.1
2023-02-08T03:00:00.496Z,12.9
2023-02-08T03:05:00.491Z,12.1
2023-02-08T03:10:00.448Z,12.1
2023-02-08T03:15:00.505Z,13.1
2023-02-08T03:20:00.453Z,11.8
2023-02-08T03:25:00.499Z,13.0
2023-02-08T03:30:00.481Z,13.9
2023-02-08T03:35:00.483Z,13.4
2023-02-08T03:40:00.453Z,13.8
2023-02-08T03:45:00.485Z,14.1
2023-02-08T03:50:00.518Z,14.1
2023-02-08T03:55:00.520Z,14.3
2023-02-08T04:00:00.451Z,14.8
2023-02-08T04:05:00.511Z,14.3
2023-02-08T04:10:00.467Z,15.9
2023-02-08T04:15:00.472Z,13.9
2023-02-08T04:20:00.488Z,15.0
2023-02-08T04:25:00.479Z,13.9
2023-02-08T04:30:00.468Z,14.5
2023-02-08T04:35:00.542Z,15.2
2023-02-08T04:40:00.455Z,12.9
2023-02-08T04:45:00.496Z,13.5
2023-02-08T04:50:00.508Z,14.3
2023-02-08T04:55:00.470Z,14.9
2023-02-08T05:00:00.727Z,14.8
2023-02-08T05:05:00.566Z,13.7
2023-02-08T05:10:00.503Z,13.5
2023-02-08T05:15:00.498Z,12.7
2023-02-08T05:20:00.472Z,14.8
2023-02-08T05:25:00.465Z,15.9
2023-02-08T05:30:00.479Z,15.2
2023-02-08T05:35:00.476Z,14.5
2023-02-08T05:40:00.471Z,14.0
2023-02-08T05:45:00.517Z,14.5
2023-02-08T05:50:00.508Z,13.9
2023-02-08T05:55:00.475Z,14.0
2023-02-08T06:00:00.506Z,13.8
2023-02-08T06:05:00.490Z,14.3
2023-02-08T06:10:00.457Z,16.0
2023-02-08T06:15:00.506Z,15.0
2023-02-08T06:20:00.475Z,13.0
2023-02-08T06:25:00.504Z,14.9
2023-02-08T06:30:00.463Z,14.2
2023-02-08T06:35:00.464Z,13.3
2023-02-08T06:40:00.486Z,14.6
2023-02-08T06:45:00.476Z,14.4
2023-02-08T06:50:00.457Z,14.2
2023-02-08T06:55:00.510Z,14.3
2023-02-08T07:00:00.473Z,13.6
2023-02-08T07:05:00.470Z,14.4
2023-02-08T07:10:00.480Z,15.0
2023-02-08T07:15:00.482Z,14.3
2023-02-08T07:20:00.478Z,16.5
2023-02-08T07:25:00.501Z,18.1
2023-02-08T07:30:00.482Z,14.6
2023-02-08T07:35:00.475Z,16.9
2023-02-08T07:40:00.473Z,14.9
2023-02-08T07:45:00.755Z,15.4
2023-02-08T07:50:00.481Z,15.8
2023-02-08T07:55:00.488Z,18.3
2023-02-08T08:00:00.478Z,17.0
2023-02-08T08:05:00.502Z,15.2
2023-02-08T08:10:00.479Z,18.0
2023-02-08T08:15:00.503Z,16.0
2023-02-08T08:20:00.503Z,14.3
2023-02-08T08:25:00.486Z,15.6
2023-02-08T08:30:00.472Z,16.9
2023-02-08T08:35:00.463Z,15.8
2023-02-08T08:40:00.482Z,15.0
2023-02-08T08:45:00.484Z,16.8
2023-02-08T08:50:00.436Z,16.7
2023-02-08T08:55:00.538Z,14.8
2023-02-08T09:00:00.447Z,17.4
2023-02-08T09:05:00.486Z,17.8
2023-02-08T09:10:00.481Z,17.3
2023-02-08T09:15:00.465Z,18.5
2023-02-08T09:20:00.467Z,16.4
2023-02-08T09:25:00.476Z,17.2
2023-02-08T09:30:00.473Z,16.8
2023-02-08T09:35:00.455Z,18.7
2023-02-08T09:40:00.662Z,18.8
2023-02-08T09:45:00.505Z,18.9
2023-02-08T09:50:00.485Z,18.4
2023-02-08T09:55:00.651Z,19.5
2023-02-08T10:00:00.491Z,18.5
2023-02-08T10:05:00.498Z,18.5
2023-02-08T10:10:00.515Z,18.4
2023-02-08T10:15:00.481Z,18.0
2023-02-08T10:20:00.658Z,17.5
2023-02-08T10:25:00.499Z,19.3
2023-02-08T10:30:00.514Z,18.2
2023-02-08T10:35:00.474Z,17.8
2023-02-08T10:40:00.534Z,16.8
2023-02-08T10:45:00.489Z,17.3
2023-02-08T10:50:00.486Z,16.6
2023-02-08T10:55:00.469Z,17.5
2023-02-08T11:00:00.687Z,16.0
2023-02-08T11:05:00.472Z,19.3
2023-02-08T11:10:00.478Z,15.8
2023-02-08T11:15:00.436Z,18.2
2023-02-08T11:20:00.532Z,17.7
2023-02-08T11:25:00.504Z,16.3
2023-02-08T11:30:00.448Z,18.2
2023-02-08T11:35:00.507Z,17.7
2023-02-08T11:40:00.537Z,16.7
2023-02-08T11:45:00.484Z,15.6
2023-02-08T11:50:00.482Z,16.0
2023-02-08T11:55:00.482Z,18.0
2023-02-08T12:00:00.477Z,13.8
2023-02-08T12:05:00.485Z,14.3
2023-02-08T12:10:00.488Z,14.9
2023-02-08T12:15:00.494Z,15.0
2023-02-08T12:20:00.524Z,14.1
2023-02-08T12:25:00.482Z,15.5
2023-02-08T12:30:00.514Z,14.1
2023-02-08T12:35:00.467Z,14.1
2023-02-08T12:40:00.470Z,13.8
2023-02-08T12:45:00.476Z,13.0
2023-02-08T12:50:00.474Z,13.5
2023-02-08T12:55:00.474Z,12.6
2023-02-08T13:00:00.456Z,13.1
2023-02-08T13:05:00.499Z,13.5
2023-02-08T13:10:00.427Z,12.6
2023-02-08T13:15:02.839Z,11.6
2023-02-08T13:20:01.027Z,12.9
2023-02-08T13:25:07.532Z,13.3
2023-02-08T13:30:00.460Z,11.7
2023-02-08T13:35:00.475Z,12.5
2023-02-08T13:40:00.492Z,11.9
2023-02-08T13:45:00.475Z,11.3
2023-02-08T13:50:00.451Z,11.4
2023-02-08T13:55:00.648Z,11.5
2023-02-08T14:00:00.494Z,9.8
2023-02-08T14:05:00.499Z,9.1
2023-02-08T14:10:00.481Z,7.7
2023-02-08T14:15:00.478Z,7.0
2023-02-08T14:20:00.455Z,6.6
2023-02-08T14:25:00.513Z,6.2
2023-02-08T14:30:00.496Z,7.5
2023-02-08T14:35:00.476Z,6.0
2023-02-08T14:40:00.492Z,6.4
2023-02-08T14:45:00.461Z,6.6
2023-02-08T14:50:00.609Z,6.8
2023-02-08T14:55:00.465Z,6.1
2023-02-08T15:00:00.571Z,7.1
2023-02-08T15:05:00.505Z,8.5
2023-02-08T15:10:00.517Z,8.3
2023-02-08T15:15:00.465Z,8.2
2023-02-08T15:20:00.510Z,9.6
2023-02-08T15:25:00.538Z,9.5
2023-02-08T15:30:00.521Z,10.3
2023-02-08T15:35:00.506Z,9.5
2023-02-08T15:40:00.588Z,10.4
2023-02-08T15:45:00.609Z,10.5
2023-02-08T15:50:00.546Z,11.3
2023-02-08T15:55:00.576Z,12.1
2023-02-08T16:00:00.648Z,11.6
2023-02-08T16:05:00.498Z,11.0
2023-02-08T16:10:00.491Z,12.2
2023-02-08T16:15:00.522Z,11.8
2023-02-08T16:20:00.482Z,11.1
2023-02-08T16:25:00.495Z,10.5
2023-02-08T16:30:00.477Z,10.1
2023-02-08T16:35:00.471Z,8.6
2023-02-08T16:40:00.523Z,9.6
2023-02-08T16:45:00.472Z,9.3
2023-02-08T16:50:00.470Z,9.5
2023-02-08T16:55:00.484Z,9.3
2023-02-08T17:00:00.636Z,9.3
2023-02-08T17:05:00.478Z,10.4
2023-02-08T17:10:00.585Z,14.3
2023-02-08T17:15:00.474Z,11.9
2023-02-08T17:20:00.556Z,11.4
2023-02-08T17:25:00.512Z,11.3
2023-02-08T17:30:00.496Z,11.3
2023-02-08T17:35:00.457Z,12.0
2023-02-08T17:40:00.489Z,12.4
2023-02-08T17:45:00.568Z,13.4
2023-02-08T17:50:00.516Z,11.5
2023-02-08T17:55:00.455Z,13.8
2023-02-08T18:00:00.616Z,13.4
2023-02-08T18:05:00.467Z,12.7
2023-02-08T18:10:00.498Z,14.0
2023-02-08T18:15:00.475Z,13.8
2023-02-08T18:20:00.719Z,14.6
2023-02-08T18:25:00.466Z,13.6
2023-02-08T18:30:00.512Z,14.7
2023-02-08T18:35:03.208Z,15.1
2023-02-08T18:40:00.483Z,13.8
2023-02-08T18:45:00.500Z,14.8
2023-02-08T18:50:00.476Z,14.0
2023-02-08T18:55:00.488Z,15.1
2023-02-08T19:00:00.440Z,15.3
2023-02-08T19:05:00.469Z,13.8
2023-02-08T19:10:00.458Z,15.6
2023-02-08T19:15:00.479Z,14.6
2023-02-08T19:20:00.471Z,14.8
2023-02-08T19:25:00.650Z,14.6
2023-02-08T19:30:00.456Z,13.8
2023-02-08T19:35:00.457Z,13.7
2023-02-08T19:40:00.521Z,15.5
2023-02-08T19:45:00.473Z,15.8
2023-02-08T19:50:00.631Z,16.2
2023-02-08T19:55:00.467Z,14.1
2023-02-08T20:00:01.621Z,15.5
2023-02-08T20:05:00.437Z,15.2
2023-02-08T20:10:00.544Z,16.3
2023-02-08T20:15:00.461Z,16.6
2023-02-08T20:20:00.488Z,17.8
2023-02-08T20:25:00.472Z,15.5
2023-02-08T20:30:00.555Z,15.7
2023-02-08T20:35:00.478Z,17.9
2023-02-08T20:40:00.463Z,16.3
2023-02-08T20:45:00.521Z,16.9
2023-02-08T20:50:05.083Z,16.6
2023-02-08T20:55:00.506Z,17.9
2023-02-08T21:00:00.763Z,19.0
2023-02-08T21:05:00.519Z,15.9
2023-02-08T21:10:00.458Z,15.5
2023-02-08T21:15:00.683Z,17.3
2023-02-08T21:20:00.461Z,16.8
2023-02-08T21:25:00.524Z,17.8
2023-02-08T21:30:00.528Z,18.3
2023-02-08T21:35:00.645Z,15.4
2023-02-08T21:40:00.447Z,17.3
2023-02-08T21:45:00.484Z,17.9
2023-02-08T21:50:00.471Z,17.6
2023-02-08T21:55:00.463Z,19.4
2023-02-08T22:00:00.444Z,17.6
2023-02-08T22:05:00.476Z,18.4
2023-02-08T22:10:00.444Z,20.1
2023-02-08T22:15:00.622Z,18.3
2023-02-08T22:20:00.623Z,18.2
2023-02-08T22:25:00.468Z,19.1
2023-02-08T22:30:00.455Z,18.1
2023-02-08T22:35:00.527Z,19.1
2023-02-08T22:40:00.468Z,18.9
2023-02-08T22:45:00.514Z,19.2
2023-02-08T22:50:00.450Z,18.7
2023-02-08T22:55:00.502Z,17.9
2023-02-08T23:00:00.535Z,21.0
2023-02-08T23:05:00.490Z,17.7
2023-02-08T23:10:00.500Z,19.9
2023-02-08T23:15:00.494Z,18.1
2023-02-08T23:20:00.450Z,20.6
2023-02-08T23:25:00.474Z,20.1
2023-02-08T23:30:00.498Z,20.8
2023-02-08T23:35:00.473Z,22.0
2023-02-08T23:40:00.455Z,21.8
2023-02-08T23:45:00.476Z,21.1
2023-02-08T23:50:00.504Z,20.5
2023-02-08T23:55:00.487Z,23.4
